Ana Sayfa
METAR-TAF:

METAR-TAF

Havaalanları :

Funchal, Madeira, Portekiz

Enlem: 32-41-52N, Boylam: 016-46-28W, yükseklik: 59 m

Güncel hava durumu gözlemi

Rapor saat 16:00 UTC de 19 dakika önce yapıldı.
Rüzgar güneybatıdan 14 kt
Sıcaklık 23°C
Nem 61%
Basınç 1015 hPa
Görüş mesafesi 10 km veya daha fazla
1300 ft yükseklikte parçalı bulutlu

METAR: LPMA 051600Z 22014KT 9999 SCT013 23/15 Q1015

Saat: 17:19 (16:19 UTC)

Tahmin

Rapor saat 11:30 UTC de 4 saat ve 49 dakika önce yapıldı.
Ayın 05'si saat 12 UTC'den ayın 06'si saat 12 UTC'ye kadar geçerli Tahmin
Rüzgar değişken yönden 5 kt
Görüş mesafesi 10 km veya daha fazla
1600 ft yükseklikte parçalı bulutlu
Geçici
ayın 05'si saat 12 UTC'den ayın 06'si saat 12 UTC'ye kadar
1500 ft yükseklikte parçalı çok bulutlu
Dönüşüyor
ayın 06'si saat 03 UTC'den ayın 06'si saat 06 UTC'ye kadar
Rüzgar güneybatıdan 8 kt

TAF: LPMA 051130Z 0512/0612 VRB05KT 9999 SCT016 TEMPO 0512/0612 BKN015 BECMG 0603/0606 22008KT

4.000'den fazla havaalanı için hava durumu gözlemleri ve tahminleri (METAR ve TAF raporları).

Kullanılabilir istasyonlar harita üzerinde sarı ve kırmızı noktalarla gösterilir.

İstasyonun adını görmek için fareyi noktanın üzerinde gezdirin.

Sonrasında hava gözlem ve tahminlerini görmek için tıklayın.

Haritayı değiştirmek için: yaklaştırmak için siyah artı işaretli yeşil düğmeye ve uzaklaştırmak için de eksi işaretli düğmeye hızla tıklayın; bitişik haritalar için yeşil okları kullanın.


METAR-TAF: